createdAt,value
2018-12-17T00:01:18.367Z,5.35
2018-12-17T00:06:23.641Z,5.41
2018-12-17T00:11:28.594Z,5.44
2018-12-17T00:16:34.515Z,5.44
2018-12-17T00:21:39.301Z,5.48
2018-12-17T00:26:44.661Z,5.50
2018-12-17T00:31:49.999Z,5.53
2018-12-17T00:37:01.053Z,5.56
2018-12-17T00:42:06.828Z,5.49
2018-12-17T00:47:12.377Z,5.52
2018-12-17T00:52:17.192Z,5.59
2018-12-17T00:57:22.139Z,5.63
2018-12-17T01:10:09.164Z,5.43
2018-12-17T01:15:14.796Z,5.57
2018-12-17T01:20:20.238Z,5.56
2018-12-17T01:25:25.280Z,5.49
2018-12-17T01:30:30.732Z,5.41
2018-12-17T01:35:34.988Z,5.47
2018-12-17T01:40:40.649Z,5.53
2018-12-17T01:45:45.295Z,5.61
2018-12-17T01:50:49.879Z,5.64
2018-12-17T01:55:54.988Z,5.65
2018-12-17T02:01:00.452Z,5.68
2018-12-17T02:06:05.016Z,5.69
2018-12-17T02:16:32.505Z,5.75
2018-12-17T02:21:37.765Z,5.81
2018-12-17T02:26:43.084Z,5.79
2018-12-17T02:37:09.019Z,5.74
2018-12-17T02:42:14.109Z,5.78
2018-12-17T02:47:19.324Z,5.70
2018-12-17T02:52:23.528Z,5.72
2018-12-17T02:57:28.658Z,5.70
2018-12-17T03:08:19.134Z,5.81
2018-12-17T03:13:23.728Z,5.81
2018-12-17T03:18:31.095Z,5.85
2018-12-17T03:23:35.401Z,5.81
2018-12-17T03:28:40.912Z,5.85
2018-12-17T03:33:47.303Z,5.82
2018-12-17T03:38:51.951Z,5.86
2018-12-17T03:43:56.321Z,5.88
2018-12-17T03:49:01.006Z,5.92
2018-12-17T03:54:05.689Z,5.93
2018-12-17T03:59:11.218Z,5.90
2018-12-17T04:04:15.794Z,5.94
2018-12-17T04:09:20.385Z,5.92
2018-12-17T04:14:25.435Z,5.89
2018-12-17T04:19:30.162Z,5.87
2018-12-17T04:30:21.989Z,5.77
2018-12-17T04:47:37.609Z,5.82
2018-12-17T05:14:31.880Z,6.03
2018-12-17T05:19:36.900Z,6.03
2018-12-17T05:24:41.411Z,6.06
2018-12-17T05:29:46.552Z,6.08
2018-12-17T05:34:51.811Z,6.06
2018-12-17T05:39:55.941Z,5.80
2018-12-17T05:45:00.873Z,5.77
2018-12-17T05:50:06.349Z,5.82
2018-12-17T05:55:11.158Z,5.75
2018-12-17T06:00:15.432Z,5.61
2018-12-17T06:05:20.691Z,5.73
2018-12-17T06:10:25.750Z,5.90
2018-12-17T06:15:31.279Z,5.94
2018-12-17T06:20:36.436Z,5.89
2018-12-17T06:25:40.886Z,5.87
2018-12-17T06:30:46.638Z,5.72
2018-12-17T06:41:11.156Z,5.90
2018-12-17T06:46:16.616Z,6.05
2018-12-17T06:51:23.614Z,6.18
2018-12-17T06:56:29.242Z,6.23
2018-12-17T07:01:35.426Z,6.30
2018-12-17T07:06:44.722Z,6.22
2018-12-17T07:11:51.122Z,6.06
2018-12-17T07:16:55.766Z,6.05
2018-12-17T07:22:00.737Z,6.02
2018-12-17T07:27:05.127Z,5.98
2018-12-17T07:32:10.201Z,5.90
2018-12-17T07:37:15.059Z,5.97
2018-12-17T07:42:20.894Z,6.05
2018-12-17T07:47:26.927Z,6.02
2018-12-17T07:52:31.531Z,6.04
2018-12-17T07:57:36.433Z,6.22
2018-12-17T08:02:41.554Z,6.31
2018-12-17T08:07:46.879Z,6.36
2018-12-17T08:12:52.980Z,6.52
2018-12-17T08:23:53.612Z,6.48
2018-12-17T08:28:59.786Z,6.59
2018-12-17T08:39:24.685Z,6.79
2018-12-17T08:49:57.698Z,7.10
2018-12-17T08:55:02.168Z,7.15
2018-12-17T09:00:10.984Z,7.33
2018-12-17T09:05:15.978Z,7.38
2018-12-17T09:10:20.649Z,7.42
2018-12-17T09:15:25.250Z,7.53
2018-12-17T09:20:29.876Z,7.63
2018-12-17T09:25:35.956Z,7.75
2018-12-17T09:30:41.477Z,7.79
2018-12-17T09:35:47.483Z,7.68
2018-12-17T09:40:52.604Z,7.66
2018-12-17T09:51:19.681Z,7.60
2018-12-17T09:56:25.326Z,7.64
2018-12-17T10:01:29.887Z,7.69
2018-12-17T10:11:51.667Z,7.77
2018-12-17T10:16:56.169Z,7.84
2018-12-17T10:22:01.575Z,7.89
2018-12-17T10:27:08.469Z,7.92
2018-12-17T10:32:14.119Z,8.00
2018-12-17T10:37:18.383Z,8.19
2018-12-17T10:42:23.046Z,8.36
2018-12-17T10:47:27.257Z,8.59
2018-12-17T10:52:31.546Z,8.70
2018-12-17T10:57:37.114Z,8.97
2018-12-17T11:02:42.207Z,9.13
2018-12-17T11:07:47.516Z,9.18
2018-12-17T11:18:20.552Z,9.16
2018-12-17T11:23:25.377Z,9.04
2018-12-17T11:28:29.856Z,8.96
2018-12-17T11:33:34.875Z,8.91
2018-12-17T11:38:39.190Z,8.87
2018-12-17T11:43:44.236Z,8.88
2018-12-17T11:54:15.781Z,8.83
2018-12-17T11:59:20.989Z,8.73
2018-12-17T12:04:25.657Z,8.66
2018-12-17T12:15:08.511Z,8.61
2018-12-17T12:20:17.682Z,8.64
2018-12-17T12:25:36.223Z,8.80
2018-12-17T13:47:11.154Z,8.37
2018-12-17T13:52:22.036Z,8.44
2018-12-17T13:57:27.293Z,8.53
2018-12-17T14:07:53.014Z,8.64
2018-12-17T14:12:58.715Z,8.73
2018-12-17T14:23:32.287Z,8.63
2018-12-17T14:28:37.393Z,8.65
2018-12-17T14:33:42.816Z,8.65
2018-12-17T14:38:47.638Z,8.54
2018-12-17T14:49:27.241Z,8.66
2018-12-17T14:54:31.911Z,8.65
2018-12-17T15:04:59.086Z,8.79
2018-12-17T15:10:05.433Z,8.78
2018-12-17T15:20:33.481Z,8.67
2018-12-17T15:25:38.587Z,8.68
2018-12-17T15:30:43.810Z,8.67
2018-12-17T15:35:47.982Z,8.71
2018-12-17T15:40:52.931Z,8.10
2018-12-17T15:45:57.389Z,8.73
2018-12-17T15:51:01.650Z,8.74
2018-12-17T15:56:06.806Z,8.76
2018-12-17T16:01:11.148Z,8.77
2018-12-17T16:06:16.902Z,8.84
2018-12-17T16:11:23.062Z,8.79
2018-12-17T16:16:28.045Z,8.80
2018-12-17T16:26:57.157Z,8.82
2018-12-17T16:32:02.100Z,8.85
2018-12-17T16:37:08.294Z,8.83
2018-12-17T16:42:13.206Z,8.94
2018-12-17T16:47:18.687Z,8.99
2018-12-17T16:52:25.435Z,9.00
2018-12-17T16:57:30.879Z,9.03
2018-12-17T17:02:36.422Z,9.08
2018-12-17T17:07:41.241Z,9.12
2018-12-17T17:12:45.908Z,9.13
2018-12-17T17:17:51.264Z,9.08
2018-12-17T17:22:55.470Z,9.10
2018-12-17T17:27:59.690Z,9.11
2018-12-17T17:33:04.093Z,9.23
2018-12-17T17:38:08.768Z,9.21
2018-12-17T17:43:13.462Z,9.15
2018-12-17T17:48:17.658Z,9.08
2018-12-17T17:58:49.286Z,8.98
2018-12-17T18:03:54.523Z,8.98
2018-12-17T18:08:59.720Z,8.96
2018-12-17T18:14:05.280Z,8.99
2018-12-17T18:19:10.769Z,9.00
2018-12-17T18:24:18.152Z,9.06
2018-12-17T18:29:23.299Z,9.14
2018-12-17T18:34:28.082Z,9.11
2018-12-17T18:39:33.809Z,9.14
2018-12-17T18:44:38.124Z,9.14
2018-12-17T18:49:45.109Z,9.13
2018-12-17T18:54:50.579Z,9.18
2018-12-17T18:59:55.055Z,9.21
2018-12-17T19:04:59.697Z,9.17
2018-12-17T19:10:05.089Z,9.15
2018-12-17T19:15:09.768Z,9.18
2018-12-17T19:20:14.455Z,9.12
2018-12-17T19:25:19.196Z,9.20
2018-12-17T19:30:23.909Z,9.10
2018-12-17T19:35:29.837Z,9.04
2018-12-17T19:40:34.706Z,9.04
2018-12-17T19:45:39.252Z,9.07
2018-12-17T19:50:43.769Z,9.04
2018-12-17T19:55:49.305Z,9.10
2018-12-17T20:00:54.982Z,9.04
2018-12-17T20:05:59.291Z,9.08
2018-12-17T20:11:04.693Z,9.10
2018-12-17T20:16:09.646Z,9.10
2018-12-17T20:21:17.355Z,9.07
2018-12-17T20:26:22.849Z,9.13
2018-12-17T20:31:28.656Z,9.10
2018-12-17T20:36:34.096Z,9.04
2018-12-17T20:41:38.343Z,9.08
2018-12-17T20:46:43.592Z,9.11
2018-12-17T20:51:49.762Z,9.18
2018-12-17T20:56:54.449Z,9.18
2018-12-17T21:01:58.800Z,9.15
2018-12-17T21:12:30.567Z,9.21
2018-12-17T21:17:35.124Z,9.18
2018-12-17T21:22:39.745Z,9.16
2018-12-17T21:27:45.246Z,9.20
2018-12-17T21:32:49.571Z,9.14
2018-12-17T21:37:55.037Z,9.16
2018-12-17T21:43:00.504Z,9.23
2018-12-17T21:48:05.537Z,9.21
2018-12-17T21:53:09.718Z,9.20
2018-12-17T21:58:14.910Z,9.25
2018-12-17T22:03:20.338Z,9.31
2018-12-17T22:08:26.866Z,9.36
2018-12-17T22:13:31.048Z,9.38
2018-12-17T22:18:35.166Z,9.22
2018-12-17T22:23:39.880Z,9.09
2018-12-17T22:28:45.978Z,8.92
2018-12-17T22:33:50.796Z,8.88
2018-12-17T22:38:55.134Z,8.83
2018-12-17T22:43:59.387Z,8.74
2018-12-17T22:49:04.772Z,8.57
2018-12-17T22:54:09.676Z,8.45
2018-12-17T22:59:15.603Z,8.30
2018-12-17T23:04:20.845Z,8.25
2018-12-17T23:09:23.286Z,8.18
2018-12-17T23:14:44.424Z,8.17
2018-12-17T23:19:51.332Z,8.27
2018-12-17T23:24:57.273Z,8.47
2018-12-17T23:30:03.107Z,8.55
2018-12-17T23:35:10.221Z,8.56
2018-12-17T23:40:16.018Z,8.51
2018-12-17T23:45:22.914Z,8.49
2018-12-17T23:50:28.749Z,8.53
2018-12-17T23:55:33.525Z,8.60
